Faxinal do Soturno, Brazil
Current Conditions -  °F | °C
As of 7:00 PM on Thursday 20 Nov 2014 (Local Time) from SBSM Reporting Station
Few Clouds Few Clouds  
Wind Chill: 86°   Ceiling: Unl
Heat Index: 87°   Visibility: 6mi
Dew Point: 64°   Wind: 7mph
Humidity: 48%   Direction: 120°ESE
Pressure: 29.8"   Gusts: NA
Location:  29.57°S, 53.44°W
Report Text: SBSM 202100Z 12006KT 9999 FEW040 FEW050TCU 30/18 Q1009
Loading
Personal Weather Stations






























Interactive Weather Map New forecast layout! Learn more

10-Day Weather Forecast

Advertisements
Track Severe Weather on mobile